createdAt,value
2022-10-30T00:02:23.472Z,13.38
2022-10-30T00:04:50.162Z,13.39
2022-10-30T00:07:16.721Z,13.37
2022-10-30T00:09:43.273Z,13.25
2022-10-30T00:12:09.921Z,13.30
2022-10-30T00:14:36.471Z,13.30
2022-10-30T00:17:03.066Z,13.28
2022-10-30T00:19:29.828Z,13.18
2022-10-30T00:24:23.810Z,13.28
2022-10-30T00:26:50.456Z,13.27
2022-10-30T00:29:17.160Z,13.26
2022-10-30T00:31:43.767Z,13.21
2022-10-30T00:34:10.393Z,13.08
2022-10-30T00:36:37.068Z,13.12
2022-10-30T00:39:05.600Z,13.14
2022-10-30T00:41:32.288Z,13.22
2022-10-30T00:43:58.870Z,13.17
2022-10-30T00:46:33.456Z,13.14
2022-10-30T00:49:02.501Z,13.15
2022-10-30T00:51:31.864Z,13.05
2022-10-30T00:54:02.725Z,12.99
2022-10-30T00:56:29.689Z,13.02
2022-10-30T00:59:04.064Z,12.93
2022-10-30T01:01:36.096Z,12.85
2022-10-30T01:04:04.983Z,12.85
2022-10-30T01:06:35.739Z,12.86
2022-10-30T01:09:03.700Z,12.96
2022-10-30T01:11:30.815Z,12.99
2022-10-30T01:14:06.082Z,13.00
2022-10-30T01:17:06.980Z,12.96
2022-10-30T01:23:16.074Z,12.83
2022-10-30T01:26:01.369Z,12.74
2022-10-30T01:28:43.350Z,12.72
2022-10-30T01:31:45.492Z,12.79
2022-10-30T01:34:37.844Z,12.83
2022-10-30T01:37:14.333Z,12.85
2022-10-30T01:39:43.363Z,12.78
2022-10-30T01:42:11.689Z,12.73
2022-10-30T01:44:38.996Z,12.74
2022-10-30T01:47:08.628Z,12.79
2022-10-30T01:50:09.829Z,12.84
2022-10-30T01:52:56.107Z,12.73
2022-10-30T01:55:32.523Z,12.75
2022-10-30T01:58:22.504Z,12.74
2022-10-30T02:00:56.759Z,12.80
2022-10-30T02:03:24.308Z,12.74
2022-10-30T02:05:52.908Z,12.68
2022-10-30T02:08:21.766Z,12.69
2022-10-30T02:10:52.223Z,12.74
2022-10-30T02:13:29.815Z,12.64
2022-10-30T02:15:58.783Z,12.63
2022-10-30T02:18:25.581Z,12.65
2022-10-30T02:20:53.786Z,12.61
2022-10-30T02:23:22.338Z,12.59
2022-10-30T02:25:50.195Z,12.60
2022-10-30T02:28:16.858Z,12.56
2022-10-30T02:30:46.434Z,12.55
2022-10-30T02:33:13.063Z,12.54
2022-10-30T02:35:39.735Z,12.45
2022-10-30T02:38:08.069Z,12.48
2022-10-30T02:40:34.838Z,12.45
2022-10-30T02:43:01.466Z,12.45
2022-10-30T02:45:29.489Z,12.47
2022-10-30T02:47:56.801Z,12.41
2022-10-30T02:50:23.673Z,12.44
2022-10-30T02:52:51.674Z,12.42
2022-10-30T02:55:18.772Z,12.37
2022-10-30T02:57:46.803Z,12.43
2022-10-30T03:00:14.161Z,12.38
2022-10-30T03:02:40.793Z,12.37
2022-10-30T03:05:07.863Z,12.44
2022-10-30T03:07:34.510Z,12.44
2022-10-30T03:10:01.207Z,12.36
2022-10-30T03:12:29.409Z,12.37
2022-10-30T03:14:56.079Z,12.33
2022-10-30T03:17:22.647Z,12.29
2022-10-30T03:19:49.264Z,12.31
2022-10-30T03:22:16.049Z,12.33
2022-10-30T03:24:42.663Z,12.23
2022-10-30T03:27:09.273Z,12.25
2022-10-30T03:29:38.075Z,12.24
2022-10-30T03:32:08.348Z,12.27
2022-10-30T03:34:42.627Z,12.21
2022-10-30T03:37:09.372Z,12.17
2022-10-30T03:39:35.940Z,12.19
2022-10-30T03:42:03.108Z,12.19
2022-10-30T03:44:29.769Z,12.21
2022-10-30T03:46:58.249Z,12.18
2022-10-30T03:49:32.939Z,12.17
2022-10-30T03:52:02.520Z,12.13
2022-10-30T03:54:29.093Z,12.05
2022-10-30T03:56:55.848Z,12.08
2022-10-30T03:59:25.813Z,12.00
2022-10-30T04:04:46.496Z,12.10
2022-10-30T04:07:13.795Z,12.04
2022-10-30T04:09:40.508Z,12.02
2022-10-30T04:12:07.073Z,12.05
2022-10-30T04:14:33.703Z,12.12
2022-10-30T04:17:00.395Z,12.01
2022-10-30T04:19:27.101Z,11.92
2022-10-30T04:21:53.712Z,11.93
2022-10-30T04:24:20.597Z,11.96
2022-10-30T04:26:52.494Z,11.98
2022-10-30T04:29:19.167Z,11.94
2022-10-30T04:31:45.891Z,12.04
2022-10-30T04:34:13.884Z,12.05
2022-10-30T04:36:40.508Z,11.99
2022-10-30T04:39:07.310Z,12.07
2022-10-30T04:41:35.129Z,12.01
2022-10-30T04:44:07.650Z,11.95
2022-10-30T04:46:34.474Z,11.89
2022-10-30T04:49:09.430Z,11.86
2022-10-30T04:51:36.027Z,11.95
2022-10-30T04:54:04.571Z,11.93
2022-10-30T04:56:33.065Z,11.94
2022-10-30T04:58:59.903Z,11.97
2022-10-30T05:01:26.674Z,12.01
2022-10-30T05:03:54.866Z,11.94
2022-10-30T05:06:25.865Z,11.93
2022-10-30T05:08:52.537Z,11.96
2022-10-30T05:11:29.417Z,11.93
2022-10-30T05:13:56.333Z,11.92
2022-10-30T05:16:22.901Z,11.87
2022-10-30T05:18:51.407Z,11.84
2022-10-30T05:21:17.947Z,11.85
2022-10-30T05:23:46.210Z,11.88
2022-10-30T05:26:13.031Z,11.86
2022-10-30T05:28:41.081Z,11.85
2022-10-30T05:31:08.082Z,11.86
2022-10-30T05:34:03.162Z,11.83
2022-10-30T05:36:33.304Z,11.78
2022-10-30T05:38:59.926Z,11.77
2022-10-30T05:41:32.459Z,11.78
2022-10-30T05:43:59.086Z,11.68
2022-10-30T05:46:26.233Z,11.61
2022-10-30T05:48:54.357Z,11.63
2022-10-30T05:51:21.823Z,11.66
2022-10-30T05:53:53.028Z,11.64
2022-10-30T05:56:23.608Z,11.66
2022-10-30T05:58:51.072Z,11.61
2022-10-30T06:01:17.727Z,11.67
2022-10-30T06:03:49.538Z,11.69
2022-10-30T06:06:16.468Z,11.67
2022-10-30T06:08:44.090Z,11.69
2022-10-30T06:11:43.060Z,11.74
2022-10-30T06:14:10.978Z,11.70
2022-10-30T06:16:45.940Z,11.71
2022-10-30T06:19:31.133Z,11.69
2022-10-30T06:22:08.975Z,11.68
2022-10-30T06:24:47.868Z,11.71
2022-10-30T06:27:23.615Z,11.67
2022-10-30T06:29:50.846Z,11.63
2022-10-30T06:32:17.404Z,11.62
2022-10-30T06:34:45.264Z,11.64
2022-10-30T06:37:13.753Z,11.64
2022-10-30T06:39:40.437Z,11.67
2022-10-30T06:42:27.598Z,11.68
2022-10-30T06:45:06.429Z,11.70
2022-10-30T06:47:37.212Z,11.72
2022-10-30T06:50:10.332Z,11.69
2022-10-30T06:52:37.645Z,11.64
2022-10-30T06:55:05.130Z,11.69
2022-10-30T06:57:57.988Z,11.76
2022-10-30T07:00:37.391Z,11.80
2022-10-30T07:03:22.648Z,11.75
2022-10-30T07:05:49.483Z,11.78
2022-10-30T07:08:16.338Z,11.83
2022-10-30T07:10:43.538Z,11.85
2022-10-30T07:13:36.571Z,11.81
2022-10-30T07:16:17.864Z,11.92
2022-10-30T07:18:47.212Z,11.98
2022-10-30T07:21:14.405Z,12.01
2022-10-30T07:23:41.354Z,11.99
2022-10-30T07:26:23.681Z,12.11
2022-10-30T07:28:52.689Z,12.09
2022-10-30T07:31:57.940Z,12.16
2022-10-30T07:34:32.763Z,12.27
2022-10-30T07:37:31.654Z,12.30
2022-10-30T07:40:11.505Z,12.36
2022-10-30T07:43:03.810Z,12.38
2022-10-30T07:45:36.217Z,12.48
2022-10-30T07:48:21.265Z,12.50
2022-10-30T07:50:59.528Z,12.55
2022-10-30T07:53:27.013Z,12.55
2022-10-30T07:55:57.851Z,12.54
2022-10-30T07:58:45.558Z,12.56
2022-10-30T08:01:51.289Z,12.62
2022-10-30T08:04:45.197Z,12.65
2022-10-30T08:07:36.649Z,12.69
2022-10-30T08:10:04.378Z,12.70
2022-10-30T08:12:33.499Z,12.77
2022-10-30T08:15:00.988Z,12.79
2022-10-30T08:17:28.176Z,12.83
2022-10-30T08:19:55.484Z,12.85
2022-10-30T08:22:22.176Z,12.87
2022-10-30T08:24:57.637Z,12.94
2022-10-30T08:27:24.437Z,12.96
2022-10-30T08:29:51.351Z,12.97
2022-10-30T08:32:18.063Z,12.99
2022-10-30T08:35:03.213Z,13.11
2022-10-30T08:37:30.438Z,13.10
2022-10-30T08:39:57.086Z,13.17
2022-10-30T08:42:35.309Z,13.19
2022-10-30T08:45:07.767Z,13.20
2022-10-30T08:47:37.481Z,13.23
2022-10-30T08:50:04.545Z,13.25
2022-10-30T08:52:32.219Z,13.30
2022-10-30T08:54:59.110Z,13.39
2022-10-30T08:57:27.739Z,13.45
2022-10-30T08:59:56.666Z,13.48
2022-10-30T09:02:43.446Z,13.52
2022-10-30T09:05:33.264Z,13.60
2022-10-30T09:08:29.498Z,13.59
2022-10-30T09:11:06.313Z,13.66
2022-10-30T09:13:33.512Z,13.67
2022-10-30T09:16:02.804Z,13.69
2022-10-30T09:18:32.573Z,13.76
2022-10-30T09:21:03.095Z,13.86
2022-10-30T09:23:35.319Z,13.87
2022-10-30T09:26:34.414Z,13.94
2022-10-30T09:29:08.753Z,14.16
2022-10-30T09:31:44.661Z,14.26
2022-10-30T09:34:15.137Z,14.34
2022-10-30T09:36:48.085Z,14.37
2022-10-30T09:39:14.941Z,14.46
2022-10-30T09:41:53.798Z,14.53
2022-10-30T09:44:45.863Z,14.57
2022-10-30T09:47:28.452Z,14.69
2022-10-30T09:50:17.438Z,14.71
2022-10-30T09:53:03.975Z,14.75
2022-10-30T09:55:42.016Z,14.78
2022-10-30T09:58:16.505Z,14.86
2022-10-30T10:01:06.084Z,14.90
2022-10-30T10:03:48.867Z,14.95
2022-10-30T10:06:57.244Z,15.08
2022-10-30T10:09:44.456Z,15.18
2022-10-30T10:12:34.363Z,15.31
2022-10-30T10:15:06.447Z,15.33
2022-10-30T10:17:41.393Z,15.38
2022-10-30T10:20:26.908Z,15.40
2022-10-30T10:22:56.577Z,15.45
2022-10-30T10:25:24.895Z,15.51
2022-10-30T10:28:17.645Z,15.55
2022-10-30T10:31:03.121Z,15.53
2022-10-30T10:33:59.053Z,15.56
2022-10-30T10:36:28.508Z,15.67
2022-10-30T10:39:13.566Z,15.73
2022-10-30T10:42:06.807Z,15.72
2022-10-30T10:45:01.278Z,15.78
2022-10-30T10:47:49.077Z,15.84
2022-10-30T10:50:28.448Z,15.89
2022-10-30T10:53:05.763Z,16.01
2022-10-30T10:55:36.352Z,16.15
2022-10-30T10:58:14.630Z,16.23
2022-10-30T11:00:42.312Z,16.27
2022-10-30T11:03:17.928Z,16.33
2022-10-30T11:05:55.392Z,16.40
2022-10-30T11:08:33.230Z,16.52
2022-10-30T11:11:02.279Z,16.62
2022-10-30T11:13:49.680Z,16.67
2022-10-30T11:16:33.450Z,16.64
2022-10-30T11:19:03.023Z,16.67
2022-10-30T11:21:35.194Z,16.70
2022-10-30T11:24:01.884Z,16.77
2022-10-30T11:26:31.689Z,16.87
2022-10-30T11:29:27.517Z,16.90
2022-10-30T11:32:06.177Z,16.82
2022-10-30T11:34:42.166Z,16.79
2022-10-30T11:37:29.585Z,16.90
2022-10-30T11:40:06.980Z,16.94
2022-10-30T11:42:34.842Z,16.99
2022-10-30T11:45:02.491Z,16.97
2022-10-30T11:47:37.339Z,17.02
2022-10-30T11:50:20.205Z,17.07
2022-10-30T11:52:49.260Z,17.13
2022-10-30T11:55:36.487Z,17.13
2022-10-30T11:58:06.124Z,17.07
2022-10-30T12:00:36.255Z,17.17
2022-10-30T12:03:03.601Z,17.22
2022-10-30T12:05:43.734Z,17.33
2022-10-30T12:08:20.839Z,17.34
2022-10-30T12:11:02.601Z,17.32
2022-10-30T12:13:36.418Z,17.33
2022-10-30T12:16:10.441Z,17.33
2022-10-30T12:18:37.247Z,17.46
2022-10-30T12:21:04.264Z,17.42
2022-10-30T12:23:32.339Z,17.40
2022-10-30T12:26:01.995Z,17.49
2022-10-30T12:28:31.445Z,17.60
2022-10-30T12:31:04.049Z,17.64
2022-10-30T12:33:39.550Z,17.66
2022-10-30T12:36:07.160Z,17.79
2022-10-30T12:38:44.308Z,17.82
2022-10-30T12:41:34.809Z,17.93
2022-10-30T12:44:04.505Z,17.95
2022-10-30T12:46:41.943Z,17.92
2022-10-30T12:49:18.645Z,17.96
2022-10-30T12:51:59.409Z,18.15
2022-10-30T12:54:35.980Z,18.20
2022-10-30T12:57:13.738Z,18.21
2022-10-30T12:59:40.405Z,18.14
2022-10-30T13:02:23.820Z,18.03
2022-10-30T13:04:57.804Z,18.02
2022-10-30T13:07:38.575Z,18.01
2022-10-30T13:10:28.501Z,17.96
2022-10-30T13:13:02.092Z,17.84
2022-10-30T13:15:38.289Z,17.72
2022-10-30T13:18:20.605Z,17.70
2022-10-30T13:21:10.296Z,17.63
2022-10-30T13:23:50.409Z,17.54
2022-10-30T13:26:50.931Z,17.46
2022-10-30T13:29:26.722Z,17.42
2022-10-30T13:32:11.308Z,17.40
2022-10-30T13:34:41.440Z,17.38
2022-10-30T13:37:16.467Z,17.38
2022-10-30T13:40:26.343Z,17.34
2022-10-30T13:43:02.551Z,17.40
2022-10-30T13:46:08.451Z,17.36
2022-10-30T13:48:37.992Z,17.40
2022-10-30T13:51:23.000Z,17.36
2022-10-30T13:54:04.667Z,17.29
2022-10-30T13:56:33.983Z,17.30
2022-10-30T13:59:12.760Z,17.34
2022-10-30T14:01:47.922Z,17.35
2022-10-30T14:04:44.620Z,17.28
2022-10-30T14:07:42.510Z,17.30
2022-10-30T14:10:46.052Z,17.25
2022-10-30T14:13:27.508Z,17.29
2022-10-30T14:16:07.626Z,17.35
2022-10-30T14:19:00.978Z,17.30
2022-10-30T14:21:58.862Z,17.27
2022-10-30T14:24:33.865Z,17.25
2022-10-30T14:27:03.472Z,17.27
2022-10-30T14:29:34.663Z,17.30
2022-10-30T14:32:22.078Z,17.38
2022-10-30T14:34:51.895Z,17.45
2022-10-30T14:37:38.547Z,17.43
2022-10-30T14:40:47.506Z,17.47
2022-10-30T14:43:55.347Z,17.55
2022-10-30T14:46:42.578Z,17.48
2022-10-30T14:49:57.582Z,17.46
2022-10-30T14:52:30.414Z,17.44
2022-10-30T14:55:18.881Z,17.38
2022-10-30T14:57:51.774Z,17.36
2022-10-30T15:00:24.172Z,17.27
2022-10-30T15:02:57.912Z,17.23
2022-10-30T15:05:58.675Z,17.21
2022-10-30T15:08:47.142Z,17.16
2022-10-30T15:11:43.669Z,17.17
2022-10-30T15:14:26.608Z,17.10
2022-10-30T15:16:59.690Z,17.16
2022-10-30T15:19:27.743Z,17.10
2022-10-30T15:21:56.717Z,16.98
2022-10-30T15:24:32.010Z,16.98
2022-10-30T15:27:01.009Z,17.00
2022-10-30T15:29:31.513Z,16.95
2022-10-30T15:32:00.353Z,16.91
2022-10-30T15:34:29.524Z,16.85
2022-10-30T15:36:56.804Z,16.78
2022-10-30T15:39:24.142Z,16.72
2022-10-30T15:41:54.589Z,16.59
2022-10-30T15:44:27.400Z,16.61
2022-10-30T15:46:56.888Z,16.60
2022-10-30T15:49:34.147Z,16.55
2022-10-30T15:52:12.881Z,16.55
2022-10-30T15:54:43.965Z,16.50
2022-10-30T15:57:49.874Z,16.41
2022-10-30T16:00:20.571Z,16.28
2022-10-30T16:02:51.728Z,16.20
2022-10-30T16:05:22.855Z,16.14
2022-10-30T16:07:49.658Z,16.03
2022-10-30T16:10:17.605Z,16.06
2022-10-30T16:12:44.554Z,15.93
2022-10-30T16:15:30.820Z,15.87
2022-10-30T16:18:15.450Z,15.82
2022-10-30T16:20:44.884Z,15.68
2022-10-30T16:23:13.853Z,15.76
2022-10-30T16:25:46.799Z,15.71
2022-10-30T16:28:29.093Z,15.73
2022-10-30T16:31:02.354Z,15.72
2022-10-30T16:33:30.740Z,15.66
2022-10-30T16:35:58.480Z,15.63
2022-10-30T16:38:28.383Z,15.58
2022-10-30T16:40:56.354Z,15.56
2022-10-30T16:43:28.631Z,15.54
2022-10-30T16:45:57.496Z,15.42
2022-10-30T16:48:34.038Z,15.43
2022-10-30T16:51:03.241Z,15.37
2022-10-30T16:53:30.593Z,15.33
2022-10-30T16:55:59.024Z,15.31
2022-10-30T16:58:29.865Z,15.35
2022-10-30T17:01:03.984Z,15.32
2022-10-30T17:03:37.494Z,15.28
2022-10-30T17:06:25.960Z,15.27
2022-10-30T17:08:54.466Z,15.25
2022-10-30T17:11:35.559Z,15.16
2022-10-30T17:14:10.201Z,15.23
2022-10-30T17:16:40.066Z,15.17
2022-10-30T17:19:46.341Z,15.14
2022-10-30T17:22:17.532Z,15.17
2022-10-30T17:24:44.828Z,15.18
2022-10-30T17:27:28.271Z,15.08
2022-10-30T17:29:55.071Z,15.10
2022-10-30T17:32:27.222Z,15.06
2022-10-30T17:35:12.662Z,14.99
2022-10-30T17:37:42.153Z,15.03
2022-10-30T17:40:10.732Z,15.00
2022-10-30T17:42:37.433Z,14.97
2022-10-30T17:45:07.060Z,14.94
2022-10-30T17:47:34.445Z,14.91
2022-10-30T17:50:03.138Z,14.92
2022-10-30T17:52:29.726Z,14.93
2022-10-30T17:54:56.377Z,14.91
2022-10-30T17:57:25.334Z,14.80
2022-10-30T17:59:51.952Z,14.81
2022-10-30T18:02:20.574Z,14.80
2022-10-30T18:04:48.238Z,14.79
2022-10-30T18:07:16.367Z,14.76
2022-10-30T18:09:43.628Z,14.76
2022-10-30T18:12:16.243Z,14.75
2022-10-30T18:14:44.282Z,14.72
2022-10-30T18:17:11.249Z,14.74
2022-10-30T18:19:38.044Z,14.75
2022-10-30T18:22:04.606Z,14.79
2022-10-30T18:24:31.269Z,14.78
2022-10-30T18:26:58.525Z,14.73
2022-10-30T18:29:25.178Z,14.67
2022-10-30T18:31:51.811Z,14.63
2022-10-30T18:34:21.436Z,14.63
2022-10-30T18:36:48.992Z,14.66
2022-10-30T18:39:15.753Z,14.65
2022-10-30T18:41:47.004Z,14.58
2022-10-30T18:44:17.995Z,14.55
2022-10-30T18:46:45.656Z,14.52
2022-10-30T18:49:12.919Z,14.48
2022-10-30T18:51:40.062Z,14.51
2022-10-30T18:54:15.440Z,14.47
2022-10-30T18:56:42.650Z,14.48
2022-10-30T18:59:09.199Z,14.44
2022-10-30T19:01:36.387Z,14.44
2022-10-30T19:04:09.529Z,14.43
2022-10-30T19:06:38.529Z,14.41
2022-10-30T19:09:05.225Z,14.37
2022-10-30T19:11:32.303Z,14.37
2022-10-30T19:13:59.423Z,14.37
2022-10-30T19:16:26.173Z,14.36
2022-10-30T19:18:53.197Z,14.25
2022-10-30T19:21:25.870Z,14.22
2022-10-30T19:23:54.044Z,14.21
2022-10-30T19:26:20.851Z,14.15
2022-10-30T19:28:47.565Z,14.19
2022-10-30T19:31:16.577Z,14.13
2022-10-30T19:33:43.538Z,14.13
2022-10-30T19:36:30.143Z,14.11
2022-10-30T19:38:57.186Z,14.12
2022-10-30T19:41:24.637Z,14.11
2022-10-30T19:43:53.049Z,14.12
2022-10-30T19:46:20.476Z,14.09
2022-10-30T19:48:57.374Z,14.04
2022-10-30T19:51:25.599Z,14.03
2022-10-30T19:53:53.629Z,14.05
2022-10-30T19:56:21.230Z,14.03
2022-10-30T19:58:47.918Z,13.99
2022-10-30T20:01:14.832Z,13.97
2022-10-30T20:03:41.564Z,13.91
2022-10-30T20:06:11.769Z,13.90
2022-10-30T20:08:38.544Z,13.92
2022-10-30T20:11:05.212Z,13.93
2022-10-30T20:13:33.379Z,13.91
2022-10-30T20:16:03.319Z,13.89
2022-10-30T20:18:32.113Z,13.88
2022-10-30T20:21:00.648Z,13.84
2022-10-30T20:23:28.261Z,13.83
2022-10-30T20:26:01.490Z,13.82
2022-10-30T20:28:42.792Z,13.85
2022-10-30T20:31:12.251Z,13.87
2022-10-30T20:33:39.580Z,13.86
2022-10-30T20:36:06.544Z,13.77
2022-10-30T20:38:35.159Z,13.75
2022-10-30T20:41:04.604Z,13.74
2022-10-30T20:43:36.941Z,13.72
2022-10-30T20:46:05.899Z,13.70
2022-10-30T20:48:32.857Z,13.69
2022-10-30T20:51:01.404Z,13.71
2022-10-30T20:53:29.425Z,13.72
2022-10-30T20:55:57.117Z,13.65
2022-10-30T20:58:24.721Z,13.66
2022-10-30T21:00:55.286Z,13.64
2022-10-30T21:03:22.115Z,13.59
2022-10-30T21:05:58.141Z,13.57
2022-10-30T21:08:25.930Z,13.55
2022-10-30T21:10:52.613Z,13.58
2022-10-30T21:13:19.889Z,13.40
2022-10-30T21:15:46.682Z,13.43
2022-10-30T21:18:13.900Z,13.41
2022-10-30T21:20:43.394Z,13.37
2022-10-30T21:23:11.034Z,13.43
2022-10-30T21:25:37.861Z,13.35
2022-10-30T21:28:04.790Z,13.40
2022-10-30T21:30:31.339Z,13.38
2022-10-30T21:32:59.347Z,13.38
2022-10-30T21:35:27.023Z,13.39
2022-10-30T21:37:53.693Z,13.42
2022-10-30T21:40:20.268Z,13.43
2022-10-30T21:42:49.708Z,13.42
2022-10-30T21:45:16.595Z,13.34
2022-10-30T21:47:43.401Z,13.31
2022-10-30T21:50:12.214Z,13.37
2022-10-30T21:52:39.993Z,13.32
2022-10-30T21:55:07.206Z,13.33
2022-10-30T21:57:34.088Z,13.36
2022-10-30T22:00:03.657Z,13.38
2022-10-30T22:02:34.938Z,13.32
2022-10-30T22:05:01.537Z,13.30
2022-10-30T22:07:28.182Z,13.21
2022-10-30T22:09:54.857Z,13.21
2022-10-30T22:12:21.468Z,13.21
2022-10-30T22:14:48.057Z,13.15
2022-10-30T22:17:14.731Z,13.17
2022-10-30T22:19:41.308Z,13.15
2022-10-30T22:22:08.064Z,13.09
2022-10-30T22:24:34.866Z,13.07
2022-10-30T22:27:01.490Z,13.06
2022-10-30T22:29:28.047Z,13.06
2022-10-30T22:31:54.743Z,13.07
2022-10-30T22:34:21.358Z,13.04
2022-10-30T22:36:47.964Z,13.01
2022-10-30T22:39:14.659Z,13.01
2022-10-30T22:41:41.928Z,12.99
2022-10-30T22:44:12.262Z,12.94
2022-10-30T22:46:39.370Z,12.96
2022-10-30T22:49:07.081Z,13.03
2022-10-30T22:51:35.936Z,12.99
2022-10-30T22:54:04.539Z,12.95
2022-10-30T22:56:33.295Z,12.95
2022-10-30T22:59:17.939Z,12.91
2022-10-30T23:01:44.692Z,12.86
2022-10-30T23:04:14.034Z,12.91
2022-10-30T23:06:41.127Z,12.90
2022-10-30T23:09:14.363Z,12.89
2022-10-30T23:11:41.274Z,12.84
2022-10-30T23:14:07.847Z,12.86
2022-10-30T23:16:34.502Z,12.86
2022-10-30T23:19:01.616Z,12.82
2022-10-30T23:21:30.929Z,12.79
2022-10-30T23:23:58.224Z,12.79
2022-10-30T23:26:31.229Z,12.70
2022-10-30T23:28:58.943Z,12.70
2022-10-30T23:31:26.952Z,12.68
2022-10-30T23:33:56.177Z,12.69
2022-10-30T23:36:23.110Z,12.67
2022-10-30T23:39:04.296Z,12.65
2022-10-30T23:41:34.139Z,12.62
2022-10-30T23:44:04.997Z,12.64
2022-10-30T23:46:32.222Z,12.64
2022-10-30T23:48:58.867Z,12.58
2022-10-30T23:51:25.650Z,12.56
2022-10-30T23:53:52.419Z,12.51
2022-10-30T23:56:19.538Z,12.51
2022-10-30T23:58:47.762Z,12.60
